createdAt,value
2019-04-23T00:00:13.967Z,94771.20
2019-04-23T00:02:51.103Z,94783.95
2019-04-23T00:05:29.055Z,94790.55
2019-04-23T00:07:56.199Z,94788.39
2019-04-23T00:12:47.857Z,94784.77
2019-04-23T00:17:48.833Z,94784.77
2019-04-23T00:20:23.558Z,94787.52
2019-04-23T00:22:59.901Z,94781.34
2019-04-23T00:25:43.610Z,94779.70
2019-04-23T00:28:06.703Z,94784.03
2019-04-23T00:30:51.607Z,94778.79
2019-04-23T00:33:05.244Z,94780.48
2019-04-23T00:35:34.150Z,94785.69
2019-04-23T00:38:06.587Z,94796.00
2019-04-23T00:40:34.864Z,94806.52
2019-04-23T00:43:03.812Z,94793.54
2019-04-23T00:45:39.911Z,94799.45
2019-04-23T00:48:12.581Z,94813.67
2019-04-23T00:53:07.478Z,94825.56
2019-04-23T00:55:35.673Z,94824.68
2019-04-23T00:58:19.840Z,94830.03
2019-04-23T01:00:45.126Z,94836.75
2019-04-23T01:08:12.801Z,94842.08
2019-04-23T01:10:50.952Z,94839.03
2019-04-23T01:13:14.868Z,94844.61
2019-04-23T01:15:46.701Z,94852.72
2019-04-23T01:18:19.096Z,94840.03
2019-04-23T01:20:50.250Z,94839.70
2019-04-23T01:23:03.292Z,94844.66
2019-04-23T01:25:50.088Z,94839.22
2019-04-23T01:28:38.281Z,94837.50
2019-04-23T01:31:08.962Z,94849.06
2019-04-23T01:33:38.970Z,94847.45
2019-04-23T01:36:16.144Z,94852.98
2019-04-23T01:38:41.834Z,94858.75
2019-04-23T01:41:07.777Z,94858.75
2019-04-23T01:43:38.113Z,94863.41
2019-04-23T01:46:07.963Z,94864.77
2019-04-23T01:48:42.369Z,94866.05
2019-04-23T01:51:02.463Z,94864.69
2019-04-23T01:53:54.930Z,94871.00
2019-04-23T01:56:07.918Z,94867.55
2019-04-23T02:01:07.271Z,94861.90
2019-04-23T02:03:42.824Z,94871.29
2019-04-23T02:08:41.967Z,94861.59
2019-04-23T02:11:10.619Z,94851.56
2019-04-23T02:13:47.100Z,94846.27
2019-04-23T02:16:11.721Z,94837.58
2019-04-23T02:18:45.511Z,94841.87
2019-04-23T02:21:12.068Z,94842.34
2019-04-23T02:23:44.321Z,94861.23
2019-04-23T02:26:12.885Z,94851.83
2019-04-23T02:31:40.817Z,94853.55
2019-04-23T02:34:09.687Z,94854.17
2019-04-23T02:36:32.310Z,94852.62
2019-04-23T02:41:27.978Z,94859.23
2019-04-23T02:44:04.894Z,94862.03
2019-04-23T02:46:13.232Z,94852.72
2019-04-23T02:48:57.748Z,94864.87
2019-04-23T02:51:31.117Z,94861.92
2019-04-23T02:54:12.710Z,94863.11
2019-04-23T02:56:49.022Z,94866.29
2019-04-23T02:59:05.727Z,94843.67
2019-04-23T03:01:25.303Z,94866.53
2019-04-23T03:04:09.671Z,94871.08
2019-04-23T03:06:29.900Z,94874.98
2019-04-23T03:08:57.330Z,94878.15
2019-04-23T03:11:38.489Z,94882.21
2019-04-23T03:14:04.266Z,94884.02
2019-04-23T03:16:48.235Z,94889.13
2019-04-23T03:19:18.119Z,94890.51
2019-04-23T03:37:24.296Z,94909.93
2019-04-23T03:39:50.047Z,94915.78
2019-04-23T03:44:37.742Z,94921.65
2019-04-23T03:47:05.964Z,94921.63
2019-04-23T03:52:12.109Z,94930.20
2019-04-23T03:54:37.672Z,94925.07
2019-04-23T03:57:15.576Z,94924.31
2019-04-23T03:59:52.193Z,94925.66
2019-04-23T04:02:20.864Z,94928.53
2019-04-23T04:04:33.394Z,94922.38
2019-04-23T04:09:42.567Z,94934.06
2019-04-23T04:12:14.297Z,94929.55
2019-04-23T04:19:56.602Z,94932.70
2019-04-23T04:22:21.769Z,94941.11
2019-04-23T04:24:39.518Z,94948.14
2019-04-23T04:32:03.537Z,94954.02
2019-04-23T04:35:06.861Z,94961.80
2019-04-23T04:37:35.560Z,94953.67
2019-04-23T04:39:54.684Z,94957.15
2019-04-23T04:42:33.250Z,94956.84
2019-04-23T04:47:27.967Z,94958.96
2019-04-23T04:54:31.192Z,94976.70
2019-04-23T04:57:36.815Z,94981.07
2019-04-23T05:00:01.734Z,94971.91
2019-04-23T05:03:03.331Z,94984.52
2019-04-23T05:07:37.696Z,94985.08
2019-04-23T05:15:00.807Z,94983.75
2019-04-23T05:17:45.911Z,94984.81
2019-04-23T05:20:05.566Z,94977.00
2019-04-23T05:22:45.020Z,94973.71
2019-04-23T05:25:02.094Z,94985.87
2019-04-23T05:27:37.538Z,94984.53
2019-04-23T05:30:09.957Z,94977.02
2019-04-23T05:32:32.876Z,94976.42
2019-04-23T05:35:07.876Z,94978.55
2019-04-23T05:37:42.987Z,94975.26
2019-04-23T05:40:18.663Z,94974.34
2019-04-23T05:42:41.484Z,94965.94
2019-04-23T05:45:02.894Z,94972.40
2019-04-23T05:47:33.365Z,94976.92
2019-04-23T05:50:09.919Z,94981.73
2019-04-23T05:55:15.337Z,94998.09
2019-04-23T05:57:49.133Z,94997.17
2019-04-23T06:00:19.443Z,94984.27
2019-04-23T06:02:57.232Z,94993.69
2019-04-23T06:05:20.342Z,94989.36
2019-04-23T06:07:49.668Z,94992.23
2019-04-23T06:10:23.353Z,94993.70
2019-04-23T06:12:50.688Z,94994.16
2019-04-23T06:15:26.760Z,94999.74
2019-04-23T06:17:56.155Z,95001.24
2019-04-23T06:20:27.581Z,94994.33
2019-04-23T06:22:56.042Z,94989.52
2019-04-23T06:28:05.094Z,94994.35
2019-04-23T06:30:41.927Z,94997.03
2019-04-23T06:33:08.929Z,95001.27
2019-04-23T06:35:36.206Z,94995.39
2019-04-23T06:38:26.128Z,94988.64
2019-04-23T06:40:34.305Z,94981.28
2019-04-23T06:43:22.747Z,94993.30
2019-04-23T06:46:01.529Z,94980.97
2019-04-23T06:50:51.084Z,95003.08
2019-04-23T06:53:12.492Z,95004.27
2019-04-23T06:55:50.700Z,95004.11
2019-04-23T06:58:27.682Z,95009.06
2019-04-23T07:00:48.003Z,95008.31
2019-04-23T07:03:22.158Z,95005.90
2019-04-23T07:06:16.824Z,95003.64
2019-04-23T07:16:12.822Z,95023.19
2019-04-23T07:18:44.125Z,95026.18
2019-04-23T07:26:30.340Z,95012.41
2019-04-23T07:33:59.257Z,95017.95
2019-04-23T07:36:30.852Z,95016.02
2019-04-23T07:41:56.837Z,95028.03
2019-04-23T07:44:29.740Z,95031.33
2019-04-23T07:52:11.057Z,95003.05
2019-04-23T07:54:39.992Z,94960.81
2019-04-23T07:57:12.263Z,95022.38
2019-04-23T08:02:06.089Z,94997.18
2019-04-23T08:04:42.618Z,94998.03
2019-04-23T08:07:07.040Z,95003.56
2019-04-23T08:09:43.297Z,95003.84
2019-04-23T08:12:13.330Z,95004.48
2019-04-23T08:14:46.931Z,95022.80
2019-04-23T08:17:12.457Z,95036.91
2019-04-23T08:19:49.122Z,95029.82
2019-04-23T08:22:22.165Z,95023.77
2019-04-23T08:24:57.411Z,95028.08
2019-04-23T08:27:34.757Z,95015.61
2019-04-23T08:29:47.731Z,95008.69
2019-04-23T08:35:11.002Z,95015.17
2019-04-23T08:39:57.119Z,95024.89
2019-04-23T08:47:37.273Z,95037.00
2019-04-23T08:50:04.320Z,95026.75
2019-04-23T08:52:33.476Z,95031.96
2019-04-23T08:55:22.839Z,94935.69
2019-04-23T08:57:35.097Z,95026.94
2019-04-23T09:00:05.200Z,95038.45
2019-04-23T09:05:10.729Z,95033.52
2019-04-23T09:07:40.373Z,95041.28
2019-04-23T09:10:11.248Z,95046.55
2019-04-23T09:12:45.710Z,95035.80
2019-04-23T09:15:23.067Z,95042.81
2019-04-23T09:17:57.848Z,95047.57
2019-04-23T09:22:51.835Z,95039.41
2019-04-23T09:25:32.093Z,95032.11
2019-04-23T09:27:53.185Z,95040.27
2019-04-23T09:33:00.814Z,95017.70
2019-04-23T09:35:35.938Z,95020.19
2019-04-23T09:38:23.791Z,95020.75
2019-04-23T09:41:04.144Z,95032.14
2019-04-23T09:43:27.759Z,95032.00
2019-04-23T09:46:15.105Z,95043.88
2019-04-23T09:48:47.122Z,95037.31
2019-04-23T09:51:10.331Z,95043.61
2019-04-23T09:53:57.718Z,95020.81
2019-04-23T09:56:05.008Z,95036.30
2019-04-23T09:58:34.670Z,95036.78
2019-04-23T10:01:29.482Z,95044.35
2019-04-23T10:03:52.408Z,95046.27
2019-04-23T10:06:18.256Z,95049.23
2019-04-23T10:08:47.596Z,95056.00
2019-04-23T10:11:11.874Z,95058.03
2019-04-23T10:13:42.808Z,95045.52
2019-04-23T10:16:15.615Z,95044.50
2019-04-23T10:18:42.181Z,95048.14
2019-04-23T10:21:11.311Z,95036.75
2019-04-23T10:23:41.259Z,95024.25
2019-04-23T10:26:10.178Z,95025.70
2019-04-23T10:28:42.068Z,95019.17
2019-04-23T10:31:12.511Z,95013.98
2019-04-23T10:33:42.162Z,95011.92
2019-04-23T10:36:15.800Z,95016.98
2019-04-23T10:38:54.012Z,95021.70
2019-04-23T10:41:14.081Z,95029.56
2019-04-23T10:43:48.249Z,95035.84
2019-04-23T10:46:43.620Z,95032.80
2019-04-23T10:57:03.836Z,95023.19
2019-04-23T11:04:53.958Z,95020.18
2019-04-23T11:07:30.777Z,95010.48
2019-04-23T11:12:37.225Z,95002.02
2019-04-23T11:15:13.504Z,94995.63
2019-04-23T11:17:41.346Z,95014.80
2019-04-23T11:20:15.126Z,95010.04
2019-04-23T11:25:12.794Z,95005.22
2019-04-23T11:27:39.139Z,94974.86
2019-04-23T11:30:19.593Z,95013.78
2019-04-23T11:37:54.567Z,95017.45
2019-04-23T11:42:47.601Z,95025.30
2019-04-23T11:45:15.092Z,95015.95
2019-04-23T11:48:14.324Z,95005.18
2019-04-23T11:50:25.966Z,94995.91
2019-04-23T11:55:26.833Z,95005.91
2019-04-23T11:57:52.044Z,95001.75
2019-04-23T12:00:13.853Z,94995.91
2019-04-23T12:02:53.949Z,94989.72
2019-04-23T12:06:09.611Z,94979.30
2019-04-23T12:11:39.458Z,94959.09
2019-04-23T12:14:03.139Z,94961.31
2019-04-23T12:16:27.924Z,94984.52
2019-04-23T12:19:25.474Z,95000.17
2019-04-23T12:24:07.449Z,95000.51
2019-04-23T12:29:09.892Z,94994.67
2019-04-23T12:31:32.602Z,94976.43
2019-04-23T12:34:06.264Z,94964.31
2019-04-23T12:39:11.126Z,95001.14
2019-04-23T12:41:44.869Z,94992.41
2019-04-23T12:44:09.698Z,94965.94
2019-04-23T12:46:45.773Z,94957.95
2019-04-23T12:49:34.688Z,94953.92
2019-04-23T12:51:50.299Z,94952.77
2019-04-23T12:54:24.968Z,94967.14
2019-04-23T12:57:01.275Z,94980.14
2019-04-23T12:59:20.262Z,94976.26
2019-04-23T13:01:49.686Z,94965.17
2019-04-23T13:04:22.190Z,94977.44
2019-04-23T13:06:45.825Z,94982.59
2019-04-23T13:09:34.703Z,94964.88
2019-04-23T13:11:52.992Z,94974.02
2019-04-23T13:14:29.549Z,94962.53
2019-04-23T13:17:05.497Z,94952.83
2019-04-23T13:19:32.843Z,94944.03
2019-04-23T13:22:08.154Z,94960.75
2019-04-23T13:24:28.829Z,94968.62
2019-04-23T13:26:56.530Z,94959.06
2019-04-23T13:29:38.139Z,94969.73
2019-04-23T13:31:58.313Z,94961.05
2019-04-23T13:34:37.099Z,94903.88
2019-04-23T13:37:07.366Z,94944.09
2019-04-23T13:39:33.027Z,94951.33
2019-04-23T13:42:06.084Z,94950.28
2019-04-23T13:44:33.949Z,94946.84
2019-04-23T13:47:10.584Z,94950.92
2019-04-23T13:49:33.344Z,94951.03
2019-04-23T13:52:39.489Z,94941.02
2019-04-23T13:54:56.446Z,94919.03
2019-04-23T13:57:32.564Z,94915.87
2019-04-23T14:02:17.462Z,94906.62
2019-04-23T14:04:48.401Z,94888.58
2019-04-23T14:07:15.030Z,94879.23
2019-04-23T14:09:54.861Z,94880.12
2019-04-23T14:12:17.741Z,94874.21
2019-04-23T14:17:36.214Z,94876.23
2019-04-23T14:19:59.870Z,94891.09
2019-04-23T14:22:54.747Z,94890.52
2019-04-23T14:25:07.825Z,94886.72
2019-04-23T14:27:36.777Z,94869.03
2019-04-23T14:30:14.582Z,94869.11
2019-04-23T14:32:29.347Z,94880.36
2019-04-23T14:35:10.870Z,94883.05
2019-04-23T14:37:33.072Z,94894.06
2019-04-23T14:40:21.950Z,94888.98
2019-04-23T14:43:00.018Z,94886.93
2019-04-23T14:48:00.528Z,94879.09
2019-04-23T14:53:06.321Z,94865.38
2019-04-23T14:55:58.004Z,94868.66
2019-04-23T14:58:18.085Z,94876.66
2019-04-23T15:01:00.021Z,94882.62
2019-04-23T15:03:25.406Z,94890.20
2019-04-23T15:05:49.099Z,94896.06
2019-04-23T15:08:20.710Z,94889.64
2019-04-23T15:13:16.892Z,94871.83
2019-04-23T15:15:55.631Z,94873.51
2019-04-23T15:18:30.497Z,94863.27
2019-04-23T15:21:23.871Z,94863.20
2019-04-23T15:23:57.212Z,94864.22
2019-04-23T15:26:47.792Z,94857.30
2019-04-23T15:28:09.050Z,94862.94
2019-04-23T15:31:04.082Z,94882.66
2019-04-23T15:33:37.077Z,94903.02
2019-04-23T15:36:12.786Z,94897.27
2019-04-23T15:38:45.490Z,94902.91
2019-04-23T15:41:10.632Z,94898.38
2019-04-23T15:43:32.627Z,94892.92
2019-04-23T15:46:14.673Z,94905.28
2019-04-23T15:49:01.528Z,94917.72
2019-04-23T15:51:12.357Z,94927.13
2019-04-23T15:53:34.823Z,94946.45
2019-04-23T15:56:18.257Z,94956.83
2019-04-23T15:58:46.803Z,94959.86
2019-04-23T16:01:27.098Z,94961.33
2019-04-23T16:03:21.420Z,94947.42
2019-04-23T16:05:50.940Z,94957.14
2019-04-23T16:09:04.180Z,94972.01
2019-04-23T16:11:33.502Z,94980.81
2019-04-23T16:14:13.550Z,94984.76
2019-04-23T16:16:28.631Z,94979.53
2019-04-23T16:19:07.718Z,94956.51
2019-04-23T16:21:47.261Z,94959.92
2019-04-23T16:24:13.423Z,94942.08
2019-04-23T16:31:56.485Z,94944.50
2019-04-23T16:36:41.428Z,94932.16
2019-04-23T16:39:10.235Z,94940.45
2019-04-23T16:41:46.685Z,94944.54
2019-04-23T16:46:49.732Z,94947.84
2019-04-23T16:49:20.046Z,94946.39
2019-04-23T16:51:43.093Z,94937.89
2019-04-23T16:54:16.985Z,94935.64
2019-04-23T16:57:01.013Z,94943.08
2019-04-23T17:01:52.352Z,94939.48
2019-04-23T17:04:24.779Z,94949.94
2019-04-23T17:09:21.780Z,94946.14
2019-04-23T17:14:19.152Z,94943.47
2019-04-23T17:16:42.681Z,94952.66
2019-04-23T17:19:22.697Z,94955.58
2019-04-23T17:21:56.895Z,94949.34
2019-04-23T17:24:23.976Z,94963.83
2019-04-23T17:26:57.240Z,94963.35
2019-04-23T17:29:28.587Z,94963.55
2019-04-23T17:31:46.334Z,94963.49
2019-04-23T17:34:30.479Z,94969.20
2019-04-23T17:37:07.578Z,94965.39
2019-04-23T17:40:01.837Z,94963.30
2019-04-23T17:45:16.887Z,94940.49
2019-04-23T17:47:35.254Z,94932.44
2019-04-23T17:50:14.323Z,94905.22
2019-04-23T17:52:47.370Z,94915.91
2019-04-23T17:57:37.970Z,94924.27
2019-04-23T18:00:16.062Z,94921.78
2019-04-23T18:02:55.092Z,94927.67
2019-04-23T18:12:48.948Z,94938.57
2019-04-23T18:15:09.608Z,94929.27
2019-04-23T18:17:43.331Z,94924.08
2019-04-23T18:20:50.503Z,94937.34
2019-04-23T18:25:45.769Z,94935.98
2019-04-23T18:28:08.259Z,94931.36
2019-04-23T18:30:59.585Z,94931.91
2019-04-23T18:35:49.471Z,94937.20
2019-04-23T18:38:25.090Z,94929.66
2019-04-23T18:41:02.512Z,94945.82
2019-04-23T18:43:30.773Z,94944.80
2019-04-23T18:45:59.214Z,94939.02
2019-04-23T18:51:05.178Z,94942.75
2019-04-23T18:53:40.664Z,94946.70
2019-04-23T18:58:44.845Z,94948.05
2019-04-23T19:01:05.230Z,94944.64
2019-04-23T19:03:55.561Z,94945.67
2019-04-23T19:06:30.356Z,94946.22
2019-04-23T19:12:01.654Z,94944.31
2019-04-23T19:14:25.722Z,94935.46
2019-04-23T19:17:25.005Z,94936.67
2019-04-23T19:22:12.304Z,94934.30
2019-04-23T19:24:21.935Z,94934.49
2019-04-23T19:29:35.010Z,94920.66
2019-04-23T19:32:08.049Z,94918.86
2019-04-23T19:39:40.091Z,94917.78
2019-04-23T19:44:42.746Z,94908.62
2019-04-23T19:47:27.171Z,94904.83
2019-04-23T19:49:38.556Z,94897.10
2019-04-23T19:51:59.573Z,94899.97
2019-04-23T19:54:55.408Z,94903.28
2019-04-23T20:04:42.832Z,94914.46
2019-04-23T20:07:30.923Z,94907.03
2019-04-23T20:12:15.622Z,94920.19
2019-04-23T20:19:44.751Z,94936.16
2019-04-23T20:27:23.499Z,94950.03
2019-04-23T20:30:32.459Z,94950.44
2019-04-23T20:33:35.020Z,94954.87
2019-04-23T20:38:10.869Z,94970.22
2019-04-23T20:40:16.409Z,94975.32
2019-04-23T20:42:44.527Z,94973.97
2019-04-23T20:47:46.736Z,94971.87
2019-04-23T20:49:58.501Z,94978.09
2019-04-23T20:52:40.754Z,94983.19
2019-04-23T20:57:45.433Z,94975.70
2019-04-23T21:00:23.762Z,94977.20
2019-04-23T21:05:21.284Z,94986.02
2019-04-23T21:10:34.841Z,94993.44
2019-04-23T21:13:05.330Z,94998.16
2019-04-23T21:15:30.922Z,95006.25
2019-04-23T21:18:08.300Z,94999.45
2019-04-23T21:20:35.697Z,95008.52
2019-04-23T21:23:04.686Z,95004.36
2019-04-23T21:25:32.382Z,95013.81
2019-04-23T21:31:03.422Z,95009.30
2019-04-23T21:33:30.136Z,95003.50
2019-04-23T21:39:04.294Z,94990.45
2019-04-23T21:41:39.405Z,94983.55
2019-04-23T21:44:10.156Z,94993.88
2019-04-23T21:46:36.845Z,94998.16
2019-04-23T21:53:58.750Z,94981.83
2019-04-23T21:56:35.380Z,94989.92
2019-04-23T21:59:01.443Z,94994.88
2019-04-23T22:01:37.051Z,94998.63
2019-04-23T22:06:40.851Z,95000.39
2019-04-23T22:14:09.917Z,95007.16
2019-04-23T22:16:46.741Z,95005.98
2019-04-23T22:21:47.451Z,94996.50
2019-04-23T22:24:05.685Z,94989.66
2019-04-23T22:29:17.710Z,95000.00
2019-04-23T22:31:41.769Z,94987.10
2019-04-23T22:34:16.770Z,94969.98
2019-04-23T22:36:45.819Z,94970.16
2019-04-23T22:39:09.699Z,94962.81
2019-04-23T22:41:42.198Z,94980.78
2019-04-23T22:44:14.397Z,94964.61
2019-04-23T22:49:24.837Z,94956.08
2019-04-23T22:54:13.991Z,94958.67
2019-04-23T22:56:54.778Z,94958.47
2019-04-23T22:59:26.611Z,94958.30
2019-04-23T23:01:57.020Z,94950.14
2019-04-23T23:04:24.317Z,94936.59
2019-04-23T23:11:53.971Z,94944.24
2019-04-23T23:14:20.191Z,94938.25
2019-04-23T23:16:50.400Z,94936.42
2019-04-23T23:24:20.562Z,94929.87
2019-04-23T23:26:57.231Z,94930.38
2019-04-23T23:29:19.807Z,94939.55
2019-04-23T23:32:02.049Z,94937.16
2019-04-23T23:34:25.571Z,94943.36
2019-04-23T23:37:00.267Z,94942.23
2019-04-23T23:41:56.712Z,94942.61
2019-04-23T23:47:04.421Z,94934.61
2019-04-23T23:51:59.944Z,94922.80
2019-04-23T23:54:49.578Z,94917.80
2019-04-23T23:57:04.052Z,94912.63
